| time (UTC) | temp F | wind direction | speed MPH | gust MPH | rain 1hr in | rain 24hr in | rain mn in | humidity % | barometer mb |
| 20260506231509 | 66 | 120 | 1.0 | 8.0 | 0.00 | 0.00 | 0.00 | 45 | 1013.3 |
| 20260506230002 | 67 | 134 | 0.0 | 5.0 | 0.00 | 0.00 | 0.00 | 43 | 1013.1 |
| 20260506224502 | 68 | 72 | 1.0 | 7.0 | 0.00 | 0.00 | 0.00 | 41 | 1013.0 |
| 20260506223001 | 69 | 120 | 1.0 | 7.0 | 0.00 | 0.00 | 0.00 | 41 | 1013.1 |
| 20260506221601 | 69 | 173 | 2.0 | 7.0 | 0.00 | 0.00 | 0.00 | 40 | 1013.2 |
| 20260506220002 | 69 | 128 | 1.0 | 7.0 | 0.00 | 0.00 | 0.00 | 40 | 1013.1 |
| 20260506214502 | 69 | 96 | 1.0 | 7.0 | 0.00 | 0.00 | 0.00 | 41 | 1013.6 |
| 20260506213100 | 70 | 117 | 1.0 | 4.0 | 0.00 | 0.00 | 0.00 | 43 | 1013.4 |
| 20260506211559 | 69 | 119 | 1.0 | 4.0 | 0.00 | 0.00 | 0.00 | 44 | 1013.5 |
| 20260506210057 | 68 | 99 | 2.0 | 8.0 | 0.00 | 0.00 | 0.00 | 46 | 1013.6 |
| 20260506204558 | 68 | 121 | 0.0 | 4.0 | 0.00 | 0.00 | 0.00 | 47 | 1013.7 |
| 20260506203056 | 67 | 98 | 0.0 | 6.0 | 0.00 | 0.00 | 0.00 | 50 | 1013.9 |
| 20260506201617 | 67 | 109 | 1.0 | 6.0 | 0.00 | 0.00 | 0.00 | 49 | 1013.6 |
| 20260506200053 | 69 | 121 | 2.0 | 6.0 | 0.00 | 0.00 | 0.00 | 46 | 1013.3 |
| 20260506194555 | 70 | 141 | 1.0 | 8.0 | 0.00 | 0.00 | 0.00 | 46 | 1013.1 |
| 20260506193054 | 70 | 101 | 1.0 | 7.0 | 0.00 | 0.00 | 0.00 | 46 | 1012.8 |
| 20260506191551 | 70 | 123 | 0.0 | 5.0 | 0.00 | 0.00 | 0.00 | 48 | 1012.8 |
| 20260506190056 | 70 | 187 | 1.0 | 4.0 | 0.00 | 0.00 | 0.00 | 48 | 1013.1 |
| 20260506184558 | 70 | 125 | 0.0 | 5.0 | 0.00 | 0.00 | 0.00 | 48 | 1013.3 |
| 20260506183054 | 69 | 135 | 1.0 | 6.0 | 0.00 | 0.00 | 0.00 | 49 | 1013.4 |
| 20260506181551 | 69 | 186 | 2.0 | 8.0 | 0.00 | 0.00 | 0.00 | 46 | 1013.5 |
| 20260506180044 | 67 | 120 | 0.0 | 4.0 | 0.00 | 0.00 | 0.00 | 48 | 1013.5 |
| 20260506174540 | 66 | 124 | 0.0 | 2.0 | 0.00 | 0.00 | 0.00 | 56 | 1013.4 |
| 20260506173046 | 65 | 124 | 0.0 | 4.0 | 0.00 | 0.00 | 0.00 | 56 | 1013.5 |
| 20260506171544 | 64 | 125 | 0.0 | 3.0 | 0.00 | 0.00 | 0.00 | 58 | 1013.4 |
| 20260506170035 | 63 | 130 | 0.0 | 3.0 | 0.00 | 0.00 | 0.00 | 60 | 1013.6 |
| 20260506164532 | 61 | 103 | 0.0 | 4.0 | 0.00 | 0.00 | 0.00 | 61 | 1013.8 |
| 20260506163038 | 60 | 110 | 0.0 | 5.0 | 0.00 | 0.00 | 0.00 | 64 | 1013.8 |
| 20260506161526 | 59 | 143 | 0.0 | 6.0 | 0.00 | 0.00 | 0.00 | 65 | 1013.9 |
| 20260506160018 | 58 | 118 | 0.0 | 3.0 | 0.00 | 0.00 | 0.00 | 67 | 1013.9 |
| 20260506154519 | 58 | 110 | 0.0 | 4.0 | 0.00 | 0.00 | 0.00 | 68 | 1013.6 |
| 20260506153012 | 57 | 122 | 0.0 | 3.0 | 0.00 | 0.00 | 0.00 | 70 | 1013.8 |
| 20260506151507 | 56 | 130 | 0.0 | 3.0 | 0.00 | 0.00 | 0.00 | 72 | 1014.0 |
| 20260506150007 | 55 | 141 | 0.0 | 4.0 | 0.00 | 0.00 | 0.00 | 73 | 1014.3 |
| 20260506144503 | 55 | 120 | 0.0 | 3.0 | 0.00 | 0.00 | 0.00 | 74 | 1014.4 |
| 20260506143100 | 0 | 0.0 | 0.0 | 0.00 | 0.00 | 0.00 | 1014.5 | ||
| 20260506141558 | 0 | 0.0 | 0.0 | 0.00 | 0.00 | 0.00 | 1014.6 | ||
| 20260506140101 | 0 | 0.0 | 0.0 | 0.00 | 0.00 | 0.00 | 1014.7 | ||
| 20260506134550 | 0 | 0.0 | 0.0 | 0.00 | 0.00 | 0.00 | 1014.7 | ||
| 20260506133046 | 0 | 0.0 | 0.0 | 0.00 | 0.00 | 0.00 | 1014.7 | ||
| 20260506131542 | 0 | 0.0 | 0.0 | 0.00 | 0.00 | 0.00 | 1014.6 | ||
| 20260506130041 | 0 | 0.0 | 0.0 | 0.00 | 0.00 | 0.00 | 1014.7 | ||
| 20260506124539 | 52 | 128 | 0.0 | 1.0 | 0.00 | 0.00 | 0.00 | 80 | 1014.5 |
| 20260506123037 | 53 | 119 | 0.0 | 1.0 | 0.00 | 0.00 | 0.00 | 79 | 1014.4 |
| 20260506121535 | 53 | 127 | 0.0 | 1.0 | 0.00 | 0.00 | 0.00 | 80 | 1014.2 |
| 20260506120035 | 53 | 130 | 0.0 | 1.0 | 0.00 | 0.00 | 0.00 | 80 | 1014.1 |
| 20260506114533 | 53 | 134 | 0.0 | 1.0 | 0.00 | 0.00 | 0.00 | 79 | 1014.0 |
| 20260506113033 | 53 | 129 | 0.0 | 1.0 | 0.00 | 0.00 | 0.00 | 79 | 1013.9 |
| 20260506111533 | 53 | 124 | 0.0 | 1.0 | 0.00 | 0.00 | 0.00 | 78 | 1013.9 |
| 20260506110025 | 53 | 129 | 0.0 | 1.0 | 0.00 | 0.00 | 0.00 | 78 | 1013.6 |
| 20260506104521 | 54 | 128 | 0.0 | 1.0 | 0.00 | 0.00 | 0.00 | 77 | 1013.5 |
| 20260506103022 | 54 | 128 | 0.0 | 2.0 | 0.00 | 0.00 | 0.00 | 76 | 1013.3 |
| 20260506101522 | 54 | 131 | 0.0 | 1.0 | 0.00 | 0.00 | 0.00 | 76 | 1013.2 |
| 20260506100020 | 54 | 145 | 0.0 | 1.0 | 0.00 | 0.00 | 0.00 | 75 | 1013.2 |
| 20260506094520 | 54 | 132 | 0.0 | 3.0 | 0.00 | 0.00 | 0.00 | 74 | 1013.3 |
| 20260506093032 | 55 | 129 | 0.0 | 1.0 | 0.00 | 0.00 | 0.00 | 73 | 1013.2 |
| 20260506091517 | 55 | 113 | 0.0 | 2.0 | 0.00 | 0.00 | 0.00 | 72 | 1013.2 |
| 20260506090015 | 55 | 126 | 0.0 | 2.0 | 0.00 | 0.00 | 0.00 | 72 | 1013.2 |
| 20260506084517 | 55 | 124 | 0.0 | 3.0 | 0.00 | 0.00 | 0.00 | 71 | 1013.3 |
| 20260506083012 | 56 | 139 | 0.0 | 3.0 | 0.00 | 0.00 | 0.00 | 71 | 1013.2 |
| 20260506081511 | 56 | 119 | 0.0 | 2.0 | 0.00 | 0.00 | 0.00 | 71 | 1013.1 |
| 20260506073010 | 57 | 106 | 0.0 | 3.0 | 0.00 | 0.00 | 0.00 | 70 | 1012.8 |
| 20260506071508 | 57 | 115 | 0.0 | 8.0 | 0.00 | 0.00 | 0.00 | 70 | 1012.7 |
| 20260506061603 | 59 | 134 | 0.0 | 3.0 | 0.00 | 0.00 | 0.00 | 66 | 1012.3 |
| 20260506044605 | 61 | 122 | 0.0 | 6.0 | 0.00 | 0.00 | 0.00 | 62 | 1012.0 |
| 20260506043055 | 62 | 103 | 0.0 | 1.0 | 0.00 | 0.00 | 0.00 | 60 | 1011.8 |
| 20260506041606 | 63 | 107 | 0.0 | 4.0 | 0.00 | 0.00 | 0.00 | 58 | 1011.7 |
| 20260506040055 | 64 | 91 | 0.0 | 1.0 | 0.00 | 0.00 | 0.00 | 56 | 1011.4 |
| 20260506034550 | 64 | 120 | 0.0 | 1.0 | 0.00 | 0.00 | 0.00 | 56 | 1011.2 |
| 20260506033055 | 65 | 120 | 0.0 | 1.0 | 0.00 | 0.00 | 0.00 | 55 | 1011.0 |
| 20260506031551 | 67 | 125 | 0.0 | 4.0 | 0.00 | 0.00 | 0.00 | 53 | 1010.8 |
| 20260506030050 | 68 | 113 | 0.0 | 1.0 | 0.00 | 0.00 | 0.00 | 51 | 1010.5 |
| 20260506024551 | 69 | 139 | 0.0 | 3.0 | 0.00 | 0.00 | 0.00 | 49 | 1010.3 |
| 20260506023056 | 70 | 107 | 0.0 | 4.0 | 0.00 | 0.00 | 0.00 | 48 | 1010.3 |
| 20260506021553 | 71 | 101 | 0.0 | 5.0 | 0.00 | 0.00 | 0.00 | 47 | 1010.2 |
| 20260506020117 | 72 | 113 | 0.0 | 2.0 | 0.00 | 0.00 | 0.00 | 45 | 1010.1 |
| 20260506014551 | 73 | 116 | 0.0 | 4.0 | 0.00 | 0.00 | 0.00 | 44 | 1009.9 |
| 20260506013041 | 74 | 91 | 1.0 | 3.0 | 0.00 | 0.00 | 0.00 | 42 | 1009.9 |
| 20260506011545 | 75 | 91 | 0.0 | 3.0 | 0.00 | 0.00 | 0.00 | 39 | 1009.8 |
| 20260506010039 | 76 | 113 | 0.0 | 5.0 | 0.00 | 0.00 | 0.00 | 37 | 1009.8 |
| 20260506004542 | 76 | 114 | 0.0 | 4.0 | 0.00 | 0.00 | 0.00 | 34 | 1009.7 |
| 20260506003038 | 77 | 116 | 0.0 | 5.0 | 0.00 | 0.00 | 0.00 | 34 | 1009.6 |
| 20260506001545 | 78 | 86 | 0.0 | 5.0 | 0.00 | 0.00 | 0.00 | 33 | 1009.5 |
| 20260506000053 | 78 | 110 | 0.0 | 5.0 | 0.00 | 0.00 | 0.00 | 33 | 1009.6 |
| 20260505234541 | 78 | 101 | 0.0 | 3.0 | 0.00 | 0.00 | 0.00 | 30 | 1009.5 |
| 20260505233035 | 79 | 115 | 0.0 | 6.0 | 0.00 | 0.00 | 0.00 | 27 | 1009.6 |